createdAt,value
2019-03-09T00:01:46.895Z,55.40
2019-03-09T00:04:17.047Z,55.84
2019-03-09T00:06:47.326Z,55.61
2019-03-09T00:09:20.537Z,55.57
2019-03-09T00:11:50.371Z,56.03
2019-03-09T00:14:20.821Z,56.03
2019-03-09T00:16:50.857Z,55.30
2019-03-09T00:19:21.317Z,55.28
2019-03-09T00:21:51.233Z,54.75
2019-03-09T00:24:36.824Z,53.94
2019-03-09T00:27:30.233Z,54.34
2019-03-09T00:30:26.709Z,53.73
2019-03-09T00:32:56.744Z,53.73
2019-03-09T00:35:26.780Z,54.63
2019-03-09T00:37:56.673Z,54.31
2019-03-09T00:40:26.714Z,53.91
2019-03-09T00:42:55.535Z,53.48
2019-03-09T00:45:25.181Z,52.79
2019-03-09T00:47:54.644Z,52.79
2019-03-09T00:50:24.686Z,53.01
2019-03-09T00:52:53.503Z,53.19
2019-03-09T00:55:23.112Z,52.91
2019-03-09T00:57:52.981Z,52.91
2019-03-09T01:00:22.829Z,52.35
2019-03-09T01:02:52.528Z,52.28
2019-03-09T01:05:21.812Z,53.57
2019-03-09T01:07:51.765Z,52.15
2019-03-09T01:10:21.355Z,50.44
2019-03-09T01:12:51.015Z,50.29
2019-03-09T01:15:20.738Z,51.42
2019-03-09T01:17:50.697Z,51.44
2019-03-09T01:20:20.477Z,51.36
2019-03-09T01:22:49.899Z,51.15
2019-03-09T01:25:19.661Z,49.89
2019-03-09T01:27:49.160Z,49.28
2019-03-09T01:30:20.170Z,50.80
2019-03-09T01:32:49.838Z,51.13
2019-03-09T01:35:19.549Z,50.61
2019-03-09T01:37:49.164Z,50.76
2019-03-09T01:40:18.705Z,50.76
2019-03-09T01:42:48.446Z,50.74
2019-03-09T01:45:18.167Z,49.24
2019-03-09T01:47:47.842Z,49.24
2019-03-09T01:50:17.886Z,50.26
2019-03-09T01:52:47.586Z,49.74
2019-03-09T01:55:16.785Z,49.31
2019-03-09T01:57:46.560Z,49.65
2019-03-09T02:00:18.748Z,49.18
2019-03-09T02:02:49.212Z,49.18
2019-03-09T02:05:19.110Z,49.53
2019-03-09T02:07:49.731Z,49.32
2019-03-09T02:10:19.308Z,49.31
2019-03-09T02:12:48.850Z,49.77
2019-03-09T02:15:18.544Z,50.10
2019-03-09T02:17:48.322Z,49.81
2019-03-09T02:20:18.449Z,49.81
2019-03-09T02:22:48.510Z,51.54
2019-03-09T02:25:18.756Z,51.26
2019-03-09T02:27:49.107Z,51.26
2019-03-09T02:30:19.756Z,49.89
2019-03-09T02:32:49.528Z,51.04
2019-03-09T02:35:19.763Z,51.71
2019-03-09T02:37:49.756Z,51.71
2019-03-09T02:40:23.204Z,51.12
2019-03-09T02:42:53.627Z,51.38
2019-03-09T02:45:24.605Z,51.69
2019-03-09T02:47:53.996Z,51.69
2019-03-09T02:50:24.176Z,50.84
2019-03-09T02:52:54.358Z,51.71
2019-03-09T02:55:24.472Z,51.54
2019-03-09T02:57:54.473Z,49.70
2019-03-09T03:00:24.663Z,49.70
2019-03-09T03:02:57.549Z,50.37
2019-03-09T03:05:27.719Z,49.38
2019-03-09T03:07:57.689Z,49.38
2019-03-09T03:10:26.685Z,48.00
2019-03-09T03:12:56.574Z,50.69
2019-03-09T03:15:32.305Z,51.56
2019-03-09T03:18:01.556Z,51.56
2019-03-09T03:20:32.675Z,50.93
2019-03-09T03:23:03.934Z,50.93
2019-03-09T03:25:33.571Z,50.23
2019-03-09T03:28:02.535Z,50.49
2019-03-09T03:30:32.586Z,50.73
2019-03-09T03:33:02.743Z,50.73
2019-03-09T03:35:32.860Z,49.36
2019-03-09T03:38:02.622Z,50.05
2019-03-09T03:40:32.431Z,49.19
2019-03-09T03:43:02.047Z,50.17
2019-03-09T03:45:32.112Z,50.17
2019-03-09T03:48:02.409Z,51.42
2019-03-09T03:50:32.518Z,50.61
2019-03-09T03:53:01.621Z,47.97
2019-03-09T03:55:31.339Z,49.57
2019-03-09T03:58:01.722Z,49.57
2019-03-09T04:00:32.031Z,48.53
2019-03-09T04:03:02.509Z,48.18
2019-03-09T04:05:32.063Z,47.58
2019-03-09T04:08:02.137Z,49.40
2019-03-09T04:10:47.058Z,48.94
2019-03-09T04:13:16.967Z,49.04
2019-03-09T04:15:46.516Z,50.04
2019-03-09T04:18:16.505Z,48.91
2019-03-09T04:20:46.714Z,48.91
2019-03-09T04:23:17.354Z,48.41
2019-03-09T04:25:47.703Z,48.78
2019-03-09T04:28:17.544Z,48.41
2019-03-09T04:30:47.809Z,48.31
2019-03-09T04:33:17.851Z,48.31
2019-03-09T04:35:48.031Z,47.34
2019-03-09T04:38:18.682Z,48.47
2019-03-09T04:40:48.703Z,47.83
2019-03-09T04:43:18.515Z,47.87
2019-03-09T04:45:49.455Z,48.19
2019-03-09T04:48:19.611Z,48.38
2019-03-09T04:50:48.839Z,48.38
2019-03-09T04:53:18.638Z,48.16
2019-03-09T04:55:47.464Z,47.97
2019-03-09T04:58:17.473Z,48.45
2019-03-09T05:00:46.445Z,48.32
2019-03-09T05:03:16.335Z,49.70
2019-03-09T05:05:45.876Z,49.70
2019-03-09T05:09:06.702Z,50.21
2019-03-09T05:11:35.504Z,49.15
2019-03-09T05:14:14.493Z,48.53
2019-03-09T05:16:44.421Z,51.28
2019-03-09T05:19:14.335Z,51.25
2019-03-09T05:21:44.641Z,51.25
2019-03-09T05:24:14.557Z,50.90
2019-03-09T05:26:45.090Z,50.13
2019-03-09T05:29:15.545Z,50.81
2019-03-09T05:31:45.321Z,50.71
2019-03-09T05:34:15.312Z,51.18
2019-03-09T05:36:45.024Z,51.18
2019-03-09T05:39:14.593Z,50.48
2019-03-09T05:41:44.775Z,56.56
2019-03-09T05:44:15.105Z,56.56
2019-03-09T05:46:44.875Z,58.66
2019-03-09T05:49:14.677Z,58.92
2019-03-09T05:52:05.523Z,59.13
2019-03-09T05:54:35.313Z,61.62
2019-03-09T05:57:05.714Z,61.62
2019-03-09T05:59:35.931Z,61.08
2019-03-09T06:02:06.176Z,62.08
2019-03-09T06:04:36.751Z,61.53
2019-03-09T06:07:07.526Z,61.95
2019-03-09T06:09:37.739Z,61.69
2019-03-09T06:12:08.174Z,61.43
2019-03-09T06:14:38.087Z,62.48
2019-03-09T06:17:08.537Z,61.97
2019-03-09T06:19:39.619Z,61.46
2019-03-09T06:22:12.634Z,62.36
2019-03-09T06:24:42.465Z,63.03
2019-03-09T06:27:13.562Z,61.44
2019-03-09T06:29:42.517Z,62.21
2019-03-09T06:33:28.050Z,60.00
2019-03-09T06:37:00.069Z,60.00
2019-03-09T06:39:50.103Z,59.88
2019-03-09T06:42:48.633Z,60.79
2019-03-09T06:45:19.918Z,60.60
2019-03-09T06:47:53.261Z,58.37
2019-03-09T06:50:26.330Z,57.84
2019-03-09T06:52:56.329Z,56.99
2019-03-09T06:55:26.157Z,57.51
2019-03-09T06:57:56.445Z,55.76
2019-03-09T07:00:39.013Z,56.24
2019-03-09T07:03:09.885Z,56.68
2019-03-09T07:05:39.677Z,57.81
2019-03-09T07:08:09.323Z,57.19
2019-03-09T07:10:38.814Z,55.74
2019-03-09T07:13:09.035Z,55.56
2019-03-09T07:15:44.919Z,55.98
2019-03-09T07:18:26.830Z,56.50
2019-03-09T07:20:58.316Z,55.94
2019-03-09T07:23:28.316Z,56.83
2019-03-09T07:25:58.329Z,54.58
2019-03-09T07:28:28.080Z,54.51
2019-03-09T07:30:57.814Z,53.82
2019-03-09T07:33:27.773Z,53.61
2019-03-09T07:35:57.874Z,54.00
2019-03-09T07:38:27.577Z,54.82
2019-03-09T07:40:56.682Z,53.36
2019-03-09T07:43:26.612Z,53.32
2019-03-09T07:46:00.668Z,52.50
2019-03-09T07:48:30.535Z,53.51
2019-03-09T07:51:00.323Z,51.18
2019-03-09T07:53:35.456Z,51.18
2019-03-09T07:56:06.332Z,51.30
2019-03-09T07:58:37.145Z,50.93
2019-03-09T08:01:08.647Z,51.38
2019-03-09T08:03:37.564Z,50.68
2019-03-09T08:06:08.301Z,51.34
2019-03-09T08:08:38.353Z,51.34
2019-03-09T08:11:07.859Z,50.97
2019-03-09T08:13:37.527Z,50.90
2019-03-09T08:16:07.924Z,50.20
2019-03-09T08:18:37.829Z,52.08
2019-03-09T08:21:08.649Z,52.12
2019-03-09T08:23:39.154Z,50.18
2019-03-09T08:26:08.901Z,49.33
2019-03-09T08:28:38.816Z,47.18
2019-03-09T08:31:08.530Z,47.33
2019-03-09T08:33:38.497Z,47.70
2019-03-09T08:36:08.097Z,47.70
2019-03-09T08:38:37.886Z,47.06
2019-03-09T08:41:07.808Z,46.77
2019-03-09T08:43:37.727Z,46.25
2019-03-09T08:46:07.952Z,46.38
2019-03-09T08:48:38.079Z,46.51
2019-03-09T08:51:07.970Z,47.42
2019-03-09T08:53:37.703Z,47.43
2019-03-09T08:56:08.519Z,46.07
2019-03-09T08:58:39.753Z,47.58
2019-03-09T09:01:08.562Z,47.58
2019-03-09T09:03:37.950Z,47.96
2019-03-09T09:06:08.862Z,47.73
2019-03-09T09:08:38.515Z,46.50
2019-03-09T09:11:08.317Z,47.39
2019-03-09T09:13:38.564Z,47.39
2019-03-09T09:16:08.599Z,48.57
2019-03-09T09:18:39.793Z,46.97
2019-03-09T09:21:09.823Z,48.01
2019-03-09T09:23:39.582Z,48.33
2019-03-09T09:26:08.266Z,47.46
2019-03-09T09:28:38.301Z,47.39
2019-03-09T09:31:07.834Z,47.39
2019-03-09T09:33:37.492Z,47.19
2019-03-09T09:36:08.778Z,48.18
2019-03-09T09:38:38.601Z,48.18
2019-03-09T09:41:07.509Z,47.52
2019-03-09T09:43:37.514Z,47.37
2019-03-09T09:46:07.432Z,48.15
2019-03-09T09:48:37.314Z,47.44
2019-03-09T09:51:07.473Z,47.44
2019-03-09T09:53:36.706Z,48.66
2019-03-09T09:56:06.563Z,48.77
2019-03-09T09:58:36.075Z,48.48
2019-03-09T10:02:41.745Z,47.47
2019-03-09T10:05:11.867Z,48.12
2019-03-09T10:07:42.123Z,47.80
2019-03-09T10:10:14.911Z,47.69
2019-03-09T10:12:44.810Z,47.41
2019-03-09T10:15:23.056Z,47.75
2019-03-09T10:17:53.738Z,46.81
2019-03-09T10:20:26.314Z,46.83
2019-03-09T10:23:04.274Z,46.41
2019-03-09T10:25:31.721Z,46.46
2019-03-09T10:28:01.542Z,46.55
2019-03-09T10:30:32.528Z,47.48
2019-03-09T10:33:03.169Z,47.48
2019-03-09T10:36:11.619Z,47.16
2019-03-09T10:38:41.517Z,47.46
2019-03-09T10:41:11.284Z,47.36
2019-03-09T10:43:41.338Z,48.14
2019-03-09T10:46:12.274Z,47.91
2019-03-09T10:48:42.537Z,48.41
2019-03-09T10:51:11.965Z,47.75
2019-03-09T10:53:42.828Z,47.75
2019-03-09T10:56:12.755Z,46.70
2019-03-09T10:58:43.145Z,47.23
2019-03-09T11:01:19.310Z,46.81
2019-03-09T11:03:50.463Z,46.53
2019-03-09T11:06:20.986Z,47.23
2019-03-09T11:08:52.153Z,47.23
2019-03-09T11:11:22.862Z,46.64
2019-03-09T11:13:52.805Z,46.64
2019-03-09T11:16:23.532Z,46.28
2019-03-09T11:18:52.654Z,46.96
2019-03-09T11:21:25.321Z,47.07
2019-03-09T11:23:55.624Z,47.53
2019-03-09T11:26:26.144Z,46.44
2019-03-09T11:28:56.145Z,46.13
2019-03-09T11:31:38.590Z,45.48
2019-03-09T11:34:08.587Z,46.40
2019-03-09T11:36:39.033Z,46.16
2019-03-09T11:39:09.493Z,46.30
2019-03-09T11:41:38.759Z,45.91
2019-03-09T11:44:08.943Z,46.68
2019-03-09T11:46:39.331Z,45.96
2019-03-09T11:49:09.595Z,45.97
2019-03-09T11:51:38.847Z,45.97
2019-03-09T11:54:09.333Z,45.40
2019-03-09T11:56:39.167Z,45.68
2019-03-09T11:59:09.326Z,45.63
2019-03-09T12:01:43.898Z,45.60
2019-03-09T12:04:13.814Z,44.87
2019-03-09T12:06:43.674Z,45.78
2019-03-09T12:09:12.630Z,45.15
2019-03-09T12:11:45.767Z,45.30
2019-03-09T12:14:16.481Z,45.12
2019-03-09T12:16:47.344Z,45.86
2019-03-09T12:19:17.328Z,45.86
2019-03-09T12:21:47.023Z,46.77
2019-03-09T12:24:19.836Z,46.77
2019-03-09T12:26:49.974Z,46.17
2019-03-09T12:29:19.738Z,46.54
2019-03-09T12:31:50.754Z,47.21
2019-03-09T12:34:20.480Z,46.38
2019-03-09T12:36:50.558Z,46.66
2019-03-09T12:39:20.324Z,47.31
2019-03-09T12:42:02.611Z,47.31
2019-03-09T12:44:31.884Z,46.81
2019-03-09T12:47:18.944Z,46.99
2019-03-09T12:49:47.876Z,46.54
2019-03-09T12:52:18.330Z,46.53
2019-03-09T12:54:48.662Z,46.67
2019-03-09T12:57:41.744Z,46.38
2019-03-09T13:00:16.611Z,47.56
2019-03-09T13:02:48.314Z,47.18
2019-03-09T13:05:18.947Z,46.07
2019-03-09T13:07:49.109Z,45.46
2019-03-09T13:10:19.834Z,45.88
2019-03-09T13:13:32.647Z,44.47
2019-03-09T13:16:02.861Z,44.89
2019-03-09T13:18:32.953Z,43.78
2019-03-09T13:21:03.069Z,44.32
2019-03-09T13:23:33.931Z,44.97
2019-03-09T13:26:04.124Z,44.65
2019-03-09T13:28:34.311Z,44.34
2019-03-09T13:31:04.919Z,44.26
2019-03-09T13:33:35.024Z,43.08
2019-03-09T13:36:08.164Z,42.90
2019-03-09T13:38:39.015Z,43.64
2019-03-09T13:41:09.590Z,43.98
2019-03-09T13:43:38.814Z,43.84
2019-03-09T13:46:15.581Z,43.28
2019-03-09T13:48:45.886Z,42.98
2019-03-09T13:51:16.443Z,43.25
2019-03-09T13:53:46.888Z,43.92
2019-03-09T13:56:17.043Z,44.77
2019-03-09T13:58:49.598Z,45.16
2019-03-09T14:01:18.893Z,45.88
2019-03-09T14:04:19.787Z,45.73
2019-03-09T14:06:50.334Z,46.09
2019-03-09T14:09:20.847Z,46.17
2019-03-09T14:12:28.303Z,46.24
2019-03-09T14:15:02.321Z,46.03
2019-03-09T14:17:32.600Z,46.40
2019-03-09T14:20:02.517Z,47.50
2019-03-09T14:22:32.812Z,51.66
2019-03-09T14:25:08.715Z,51.66
2019-03-09T14:27:38.838Z,53.74
2019-03-09T14:30:13.632Z,53.96
2019-03-09T14:32:42.477Z,57.61
2019-03-09T14:35:12.482Z,60.16
2019-03-09T14:37:42.496Z,58.56
2019-03-09T14:40:13.878Z,60.75
2019-03-09T14:43:18.115Z,60.75
2019-03-09T14:45:51.792Z,59.12
2019-03-09T14:48:21.576Z,59.12
2019-03-09T14:50:51.694Z,57.56
2019-03-09T14:53:22.044Z,57.56
2019-03-09T14:55:52.054Z,59.25
2019-03-09T14:58:22.574Z,56.97
2019-03-09T15:00:52.081Z,58.28
2019-03-09T15:03:25.660Z,55.88
2019-03-09T15:05:54.707Z,56.50
2019-03-09T15:08:25.318Z,55.40
2019-03-09T15:11:00.529Z,55.53
2019-03-09T15:13:30.911Z,52.98
2019-03-09T15:16:00.830Z,52.98
2019-03-09T15:18:31.102Z,53.32
2019-03-09T15:21:01.055Z,52.36
2019-03-09T15:23:31.133Z,52.65
2019-03-09T15:26:04.851Z,51.52
2019-03-09T15:28:35.464Z,51.40
2019-03-09T15:31:05.588Z,51.03
2019-03-09T15:33:35.728Z,52.42
2019-03-09T15:36:06.545Z,51.72
2019-03-09T15:38:36.818Z,54.00
2019-03-09T15:41:10.542Z,54.00
2019-03-09T15:43:40.526Z,53.97
2019-03-09T15:47:19.741Z,53.81
2019-03-09T15:58:24.096Z,52.99
2019-03-09T16:00:54.541Z,53.33
2019-03-09T16:03:26.327Z,53.58
2019-03-09T16:05:56.524Z,53.95
2019-03-09T16:08:27.309Z,53.65
2019-03-09T16:10:58.340Z,53.65
2019-03-09T16:13:28.595Z,53.98
2019-03-09T16:15:58.143Z,53.49
2019-03-09T16:18:32.707Z,54.95
2019-03-09T16:21:04.484Z,55.25
2019-03-09T16:23:34.847Z,54.46
2019-03-09T16:26:04.964Z,54.46
2019-03-09T16:28:34.955Z,53.94
2019-03-09T16:31:09.106Z,55.21
2019-03-09T16:33:39.142Z,54.55
2019-03-09T16:36:09.055Z,54.79
2019-03-09T16:38:39.957Z,55.60
2019-03-09T16:41:10.121Z,53.89
2019-03-09T16:43:40.832Z,53.74
2019-03-09T16:46:10.835Z,55.56
2019-03-09T16:48:43.438Z,54.48
2019-03-09T16:51:13.506Z,54.98
2019-03-09T16:53:43.472Z,54.68
2019-03-09T16:56:13.314Z,54.58
2019-03-09T16:58:43.470Z,54.58
2019-03-09T17:01:13.522Z,54.05
2019-03-09T17:03:43.490Z,54.58
2019-03-09T17:06:13.454Z,54.53
2019-03-09T17:08:43.937Z,54.53
2019-03-09T17:11:13.886Z,54.49
2019-03-09T17:13:43.845Z,54.65
2019-03-09T17:16:15.881Z,53.76
2019-03-09T17:18:45.845Z,54.38
2019-03-09T17:21:18.554Z,53.99
2019-03-09T17:23:51.511Z,53.99
2019-03-09T17:26:20.945Z,53.99
2019-03-09T17:28:57.048Z,54.34
2019-03-09T17:31:27.121Z,54.44
2019-03-09T17:33:57.307Z,54.62
2019-03-09T17:36:27.501Z,54.16
2019-03-09T17:38:57.599Z,54.74
2019-03-09T17:41:27.271Z,54.74
2019-03-09T17:43:57.481Z,54.47
2019-03-09T17:46:26.581Z,55.09
2019-03-09T17:48:56.599Z,53.32
2019-03-09T17:51:25.687Z,53.32
2019-03-09T17:53:55.898Z,53.51
2019-03-09T17:56:26.147Z,54.40
2019-03-09T17:58:56.915Z,53.90
2019-03-09T18:01:26.908Z,53.00
2019-03-09T18:03:57.308Z,53.11
2019-03-09T18:06:27.530Z,52.58
2019-03-09T18:08:56.508Z,52.58
2019-03-09T18:11:25.918Z,52.42
2019-03-09T18:13:55.878Z,52.61
2019-03-09T18:16:25.671Z,52.64
2019-03-09T18:18:55.856Z,52.01
2019-03-09T18:21:25.890Z,52.18
2019-03-09T18:23:55.641Z,52.16
2019-03-09T18:26:38.737Z,52.49
2019-03-09T18:29:09.151Z,52.09
2019-03-09T18:31:39.873Z,52.21
2019-03-09T18:34:09.687Z,52.12
2019-03-09T18:36:38.869Z,53.30
2019-03-09T18:39:09.383Z,53.41
2019-03-09T18:41:40.703Z,53.29
2019-03-09T18:44:11.926Z,53.17
2019-03-09T18:46:42.329Z,53.06
2019-03-09T18:49:12.065Z,54.14
2019-03-09T18:51:42.819Z,53.29
2019-03-09T18:54:13.307Z,51.67
2019-03-09T18:56:44.210Z,52.45
2019-03-09T18:59:15.415Z,52.54
2019-03-09T19:01:46.711Z,52.24
2019-03-09T19:04:17.530Z,52.89
2019-03-09T19:06:47.695Z,51.99
2019-03-09T19:09:18.882Z,51.99
2019-03-09T19:11:49.368Z,51.81
2019-03-09T19:14:20.327Z,51.74
2019-03-09T19:16:51.478Z,51.74
2019-03-09T19:19:21.519Z,52.45
2019-03-09T19:21:51.525Z,51.40
2019-03-09T19:24:20.803Z,50.86
2019-03-09T19:26:51.039Z,50.86
2019-03-09T19:29:42.819Z,51.40
2019-03-09T19:32:13.298Z,51.22
2019-03-09T19:34:44.311Z,51.55
2019-03-09T19:37:16.905Z,51.57
2019-03-09T19:39:47.102Z,51.37
2019-03-09T19:42:17.832Z,50.90
2019-03-09T19:44:48.041Z,50.48
2019-03-09T19:47:58.979Z,50.57
2019-03-09T19:50:32.835Z,50.83
2019-03-09T19:53:11.137Z,51.25
2019-03-09T19:55:41.771Z,50.54
2019-03-09T19:58:11.869Z,50.93
2019-03-09T20:00:42.605Z,50.86
2019-03-09T20:03:12.291Z,49.82
2019-03-09T20:05:43.315Z,50.25
2019-03-09T20:08:14.082Z,50.00
2019-03-09T20:10:45.318Z,50.16
2019-03-09T20:13:16.046Z,50.34
2019-03-09T20:15:46.540Z,50.34
2019-03-09T20:18:16.723Z,50.88
2019-03-09T20:20:48.317Z,49.99
2019-03-09T20:23:18.762Z,49.90
2019-03-09T20:25:49.238Z,50.34
2019-03-09T20:28:19.115Z,50.13
2019-03-09T20:30:49.095Z,49.85
2019-03-09T20:33:20.932Z,50.42
2019-03-09T20:36:40.959Z,50.41
2019-03-09T20:40:03.715Z,49.75
2019-03-09T20:42:59.835Z,50.04
2019-03-09T20:46:10.878Z,50.49
2019-03-09T20:49:34.361Z,50.68
2019-03-09T20:53:09.104Z,50.98
2019-03-09T20:56:23.665Z,51.14
2019-03-09T20:59:51.173Z,51.67
2019-03-09T21:03:24.606Z,52.00
2019-03-09T21:06:22.114Z,52.00
2019-03-09T21:09:35.365Z,52.25
2019-03-09T21:13:07.910Z,52.09
2019-03-09T21:16:24.373Z,51.54
2019-03-09T21:19:51.145Z,51.70
2019-03-09T21:23:11.949Z,51.86
2019-03-09T21:26:33.166Z,52.16
2019-03-09T21:29:55.336Z,52.23
2019-03-09T21:33:07.602Z,53.00
2019-03-09T21:36:10.764Z,52.76
2019-03-09T21:39:34.777Z,51.96
2019-03-09T21:42:59.074Z,53.03
2019-03-09T21:46:13.802Z,53.03
2019-03-09T21:49:42.482Z,52.33
2019-03-09T21:53:05.642Z,53.64
2019-03-09T21:56:27.339Z,53.64
2019-03-09T21:59:18.266Z,52.77
2019-03-09T22:02:05.982Z,53.68
2019-03-09T22:05:19.812Z,53.50
2019-03-09T22:08:21.639Z,53.34
2019-03-09T22:11:45.240Z,53.55
2019-03-09T22:14:28.292Z,53.40
2019-03-09T22:16:58.168Z,53.99
2019-03-09T22:19:28.500Z,54.01
2019-03-09T22:21:58.998Z,54.27
2019-03-09T22:26:17.387Z,55.65
2019-03-09T22:28:48.570Z,55.05
2019-03-09T22:31:19.381Z,54.98
2019-03-09T22:33:50.074Z,55.67
2019-03-09T22:36:20.339Z,55.67
2019-03-09T22:38:50.458Z,55.74
2019-03-09T22:41:20.846Z,55.46
2019-03-09T22:43:51.130Z,55.46
2019-03-09T22:46:21.802Z,54.82
2019-03-09T22:48:52.465Z,55.15
2019-03-09T22:51:23.844Z,55.22
2019-03-09T22:53:54.122Z,55.22
2019-03-09T22:56:24.145Z,54.32
2019-03-09T22:58:54.593Z,54.94
2019-03-09T23:01:25.042Z,54.86
2019-03-09T23:03:58.537Z,55.91
2019-03-09T23:06:28.987Z,56.16
2019-03-09T23:08:59.794Z,56.16
2019-03-09T23:11:29.900Z,55.00
2019-03-09T23:14:00.574Z,54.75
2019-03-09T23:16:31.092Z,55.35
2019-03-09T23:19:01.803Z,55.33
2019-03-09T23:21:32.484Z,55.06
2019-03-09T23:24:03.164Z,55.52
2019-03-09T23:26:33.787Z,55.52
2019-03-09T23:29:04.329Z,53.87
2019-03-09T23:31:34.140Z,54.28
2019-03-09T23:34:04.683Z,54.75
2019-03-09T23:36:35.311Z,55.48
2019-03-09T23:39:07.541Z,55.23
2019-03-09T23:41:38.170Z,55.44
2019-03-09T23:44:08.655Z,54.92
2019-03-09T23:46:38.856Z,54.90
2019-03-09T23:49:09.577Z,55.09
2019-03-09T23:51:38.680Z,55.44
2019-03-09T23:54:09.157Z,55.44
2019-03-09T23:56:39.153Z,54.64
2019-03-09T23:59:09.431Z,54.13
